Time;durP1;ratioP1;P1;durP2;ratioP2;P2;SDS_P1;SDS_P2;PMS_P1;PMS_P2;Temp;Humidity;BMP_temperature;BMP_pressure;BME280_temperature;BME280_humidity;BME280_pressure;Samples;Min_cycle;Max_cycle;Signal;HPM_P1;HPM_P2
2023/07/17 00:00:42;;;;;;;13.28;7.75;;;;;;;21.52;70.72;100416.08;1705414;84;21036;-65
2023/07/17 00:03:13;;;;;;;11.35;7.47;;;;;;;21.49;70.90;100418.02;1705141;84;21052;-65
2023/07/17 00:05:45;;;;;;;14.85;8.00;;;;;;;21.48;71.12;100417.73;1705404;84;20984;-65
2023/07/17 00:08:14;;;;;;;12.90;7.75;;;;;;;21.48;71.43;100417.17;1705650;84;21051;-66
2023/07/17 00:10:44;;;;;;;12.23;7.60;;;;;;;21.47;71.58;100418.84;1705764;84;21056;-66
2023/07/17 00:13:17;;;;;;;10.00;7.78;;;;;;;21.45;71.71;100425.20;1705621;84;21115;-67
2023/07/17 00:15:45;;;;;;;14.38;7.92;;;;;;;21.42;71.80;100425.19;1705579;84;21068;-67
2023/07/17 00:18:16;;;;;;;11.28;8.00;;;;;;;21.41;71.84;100424.06;1705658;84;21032;-67
2023/07/17 00:20:45;;;;;;;11.93;8.13;;;;;;;21.38;71.91;100421.81;1705521;84;21004;-65
2023/07/17 00:23:15;;;;;;;15.25;7.87;;;;;;;21.35;72.01;100417.62;1705371;84;21031;-66
2023/07/17 00:25:43;;;;;;;10.60;7.45;;;;;;;21.35;72.15;100419.56;1705324;84;21074;-66
2023/07/17 00:28:13;;;;;;;11.38;7.50;;;;;;;21.29;72.37;100408.09;1705535;84;21008;-67
2023/07/17 00:30:43;;;;;;;9.70;7.37;;;;;;;21.27;72.60;100418.67;1681736;84;21088;-66
2023/07/17 00:33:12;;;;;;;12.30;7.60;;;;;;;21.25;72.71;100413.92;1705228;84;21114;-67
2023/07/17 00:35:41;;;;;;;10.38;7.80;;;;;;;21.21;72.97;100417.77;1705574;84;21488;-65
2023/07/17 00:38:10;;;;;;;12.75;7.70;;;;;;;21.15;73.26;100407.13;1705560;84;21023;-66
2023/07/17 00:40:41;;;;;;;12.93;7.83;;;;;;;21.14;73.45;100408.80;1705479;84;21020;-65
2023/07/17 00:43:14;;;;;;;9.38;7.62;;;;;;;21.15;73.61;100404.34;1705559;84;21083;-66
2023/07/17 00:45:44;;;;;;;9.95;7.53;;;;;;;21.15;73.52;100404.34;1705483;84;21063;-66
2023/07/17 00:48:14;;;;;;;12.78;7.97;;;;;;;21.14;73.45;100406.84;1705601;84;21190;-67
2023/07/17 00:50:43;;;;;;;12.75;8.10;;;;;;;21.15;73.44;100404.34;1705474;84;21023;-66
2023/07/17 00:53:12;;;;;;;13.30;7.78;;;;;;;21.14;73.43;100400.44;1681985;84;21055;-66
2023/07/17 00:55:41;;;;;;;12.28;8.13;;;;;;;21.14;73.49;100401.83;1682223;84;21023;-66
2023/07/17 00:58:11;;;;;;;9.25;7.55;;;;;;;21.11;73.57;100402.36;1682007;84;21147;-65
2023/07/17 01:00:40;;;;;;;11.15;7.50;;;;;;;21.07;73.59;100404.00;1705699;84;21346;-66
2023/07/17 01:03:09;;;;;;;10.28;7.55;;;;;;;21.01;73.80;100398.95;1705530;84;21024;-66
2023/07/17 01:05:39;;;;;;;11.10;7.75;;;;;;;20.95;73.98;100397.23;1705399;84;21080;-66
2023/07/17 01:08:09;;;;;;;10.80;7.30;;;;;;;20.98;74.16;100397.25;1705743;84;21502;-68
2023/07/17 01:10:39;;;;;;;11.05;7.45;;;;;;;20.97;74.07;100392.23;1682102;84;21032;-65
2023/07/17 01:13:14;;;;;;;9.68;7.33;;;;;;;20.95;74.11;100397.78;1705634;84;21032;-68
2023/07/17 01:15:43;;;;;;;11.20;7.37;;;;;;;20.93;73.88;100393.88;1705585;84;21456;-65
2023/07/17 01:18:14;;;;;;;10.40;7.50;;;;;;;20.92;73.74;100392.19;1681502;84;21056;-66
2023/07/17 01:20:44;;;;;;;12.30;7.37;;;;;;;20.92;73.72;100394.97;1705683;84;21036;-66
2023/07/17 01:23:14;;;;;;;10.18;7.35;;;;;;;20.93;73.78;100393.88;1705436;84;21436;-66
2023/07/17 01:25:44;;;;;;;8.73;6.75;;;;;;;20.92;73.71;100392.19;1705700;83;21016;-66
2023/07/17 01:28:13;;;;;;;12.00;7.05;;;;;;;20.95;73.52;100389.42;1705633;84;21194;-66
2023/07/17 01:30:43;;;;;;;12.15;7.58;;;;;;;20.93;73.45;100393.88;1705642;84;21052;-69
2023/07/17 01:33:13;;;;;;;10.08;7.15;;;;;;;20.87;73.52;100390.20;1705496;84;21051;-67
2023/07/17 01:35:45;;;;;;;9.68;7.42;;;;;;;20.83;73.64;100389.05;1705670;84;21494;-65
2023/07/17 01:38:14;;;;;;;8.18;7.20;;;;;;;20.82;73.91;100389.32;1664034;86;21035;-66
2023/07/17 01:40:42;;;;;;;12.15;7.08;;;;;;;20.80;73.98;100392.89;1705629;84;21059;-67
2023/07/17 01:43:12;;;;;;;11.73;7.30;;;;;;;20.81;73.95;100391.27;1705590;84;21036;-66
2023/07/17 01:45:42;;;;;;;11.35;7.12;;;;;;;20.80;73.91;100394.28;1681298;84;21024;-66
2023/07/17 01:48:17;;;;;;;10.98;6.72;;;;;;;20.77;74.07;100398.99;1705600;84;21527;-66
2023/07/17 01:50:50;;;;;;;9.28;6.95;;;;;;;20.76;74.27;100396.77;1705603;84;21035;-66
2023/07/17 01:53:20;;;;;;;11.18;7.55;;;;;;;20.74;74.05;100396.19;1705815;84;21044;-66
2023/07/17 01:55:50;;;;;;;12.55;7.55;;;;;;;20.68;73.97;100398.64;1681692;84;21075;-65
2023/07/17 01:58:20;;;;;;;17.20;7.60;;;;;;;20.63;74.02;100397.20;1705439;84;21107;-65
2023/07/17 02:00:55;;;;;;;11.75;7.15;;;;;;;20.58;74.20;100406.34;1681509;84;21567;-67
2023/07/17 02:03:25;;;;;;;13.05;7.50;;;;;;;20.59;74.33;100403.00;1705540;84;21028;-65
2023/07/17 02:05:55;;;;;;;11.35;7.12;;;;;;;20.63;74.24;100406.10;1681671;84;21459;-65
2023/07/17 02:08:26;;;;;;;12.45;7.40;;;;;;;20.64;74.25;100398.04;1705500;84;21036;-66
2023/07/17 02:10:56;;;;;;;10.58;7.55;;;;;;;20.64;74.49;100403.61;1705484;84;21088;-66
2023/07/17 02:13:26;;;;;;;10.95;6.80;;;;;;;20.63;74.66;100399.14;1705374;84;21075;-67
2023/07/17 02:15:56;;;;;;;12.63;7.97;;;;;;;20.63;74.71;100397.20;1705324;84;21526;-65
2023/07/17 02:18:29;;;;;;;15.78;8.30;;;;;;;20.62;74.76;100403.03;1705450;84;21968;-67
2023/07/17 02:20:58;;;;;;;14.93;7.83;;;;;;;20.62;74.83;100405.81;1705638;84;21064;-66
2023/07/17 02:23:28;;;;;;;14.95;7.92;;;;;;;20.63;74.94;100404.71;1622446;88;21112;-65
2023/07/17 02:25:58;;;;;;;10.43;7.08;;;;;;;20.63;75.03;100407.50;1622463;88;21521;-66
2023/07/17 02:28:27;;;;;;;11.68;7.65;;;;;;;20.60;75.20;100405.23;1622590;88;21112;-66
2023/07/17 02:30:56;;;;;;;10.55;7.37;;;;;;;20.61;75.33;100408.31;1622401;88;21080;-66
2023/07/17 02:33:25;;;;;;;10.60;7.58;;;;;;;20.61;75.21;100406.92;1631439;87;21099;-67
2023/07/17 02:35:54;;;;;;;11.88;8.03;;;;;;;20.61;75.25;100413.87;1645191;87;21085;-66
2023/07/17 02:38:24;;;;;;;10.32;7.67;;;;;;;20.64;75.21;100418.92;1633675;88;21087;-66
2023/07/17 02:40:53;;;;;;;10.23;7.28;;;;;;;20.65;75.20;100417.81;1656541;84;21586;-66
2023/07/17 02:43:23;;;;;;;9.88;7.65;;;;;;;20.64;75.23;100425.33;1688924;84;21474;-66
2023/07/17 02:45:52;;;;;;;12.15;7.95;;;;;;;20.64;75.38;100423.94;1701180;84;21044;-65
2023/07/17 02:48:23;;;;;;;10.50;7.50;;;;;;;20.63;75.48;100424.20;1688745;83;21500;-66
2023/07/17 02:50:52;;;;;;;13.25;7.37;;;;;;;20.64;75.64;100435.62;1701330;84;21039;-67
2023/07/17 02:53:21;;;;;;;11.93;7.72;;;;;;;20.63;75.64;100435.34;1688806;83;21029;-64
2023/07/17 02:55:50;;;;;;;12.55;7.78;;;;;;;20.63;75.71;100431.16;1701317;84;21088;-67
2023/07/17 02:58:21;;;;;;;10.72;7.33;;;;;;;20.66;75.83;100438.44;1688680;84;21041;-67
2023/07/17 03:00:51;;;;;;;12.75;7.70;;;;;;;20.69;75.66;100433.73;1696462;83;21036;-66
2023/07/17 03:03:19;;;;;;;10.93;7.58;;;;;;;20.73;75.63;100432.66;1688593;84;21033;-66
2023/07/17 03:05:50;;;;;;;12.20;7.50;;;;;;;20.76;75.57;100428.78;1701436;84;21561;-67
2023/07/17 03:08:20;;;;;;;12.10;7.83;;;;;;;20.78;75.73;100428.52;1688752;84;21100;-67
2023/07/17 03:10:49;;;;;;;14.18;7.92;;;;;;;20.81;75.68;100435.83;1701090;84;21549;-65
2023/07/17 03:13:20;;;;;;;19.65;8.30;;;;;;;20.83;75.74;100432.78;1688609;85;21073;-67
2023/07/17 03:15:50;;;;;;;15.78;8.55;;;;;;;20.83;75.83;100429.44;1696741;83;21064;-67
2023/07/17 03:18:19;;;;;;;13.68;8.45;;;;;;;20.84;75.89;100433.91;1688936;84;21009;-66
2023/07/17 03:20:48;;;;;;;12.15;8.08;;;;;;;20.85;75.90;100438.38;1701191;84;21048;-66
2023/07/17 03:23:19;;;;;;;14.60;7.97;;;;;;;20.88;75.97;100434.22;1688750;85;21575;-66
2023/07/17 03:25:48;;;;;;;12.80;7.92;;;;;;;20.90;75.99;100440.36;1701066;84;21092;-66
2023/07/17 03:28:17;;;;;;;10.63;8.15;;;;;;;20.91;76.02;100446.22;1686122;85;21056;-66
2023/07/17 03:30:46;;;;;;;13.75;7.85;;;;;;;20.93;76.09;100450.13;1701328;84;21064;-66
2023/07/17 03:33:15;;;;;;;11.85;7.78;;;;;;;20.98;76.03;100451.02;1699469;84;21111;-66
2023/07/17 03:35:46;;;;;;;14.00;7.87;;;;;;;21.03;75.93;100451.06;1705484;84;21047;-67
2023/07/17 03:38:17;;;;;;;13.88;7.85;;;;;;;21.07;75.75;100449.42;1705665;84;21451;-68
2023/07/17 03:40:46;;;;;;;12.63;8.50;;;;;;;21.11;75.83;100448.34;1705696;84;21452;-66
2023/07/17 03:43:16;;;;;;;21.40;8.98;;;;;;;21.11;76.01;100446.39;1705766;84;21008;-66
2023/07/17 03:45:54;;;;;;;15.35;8.43;;;;;;;21.14;76.18;100451.44;1705484;84;21027;-67
2023/07/17 03:48:24;;;;;;;12.95;8.18;;;;;;;21.20;76.10;100447.58;1705548;84;21151;-66
2023/07/17 03:50:53;;;;;;;13.32;8.35;;;;;;;21.26;76.24;100451.83;1681490;84;21085;-67
2023/07/17 03:53:22;;;;;;;16.07;8.23;;;;;;;21.32;76.30;100457.73;1705393;84;21471;-67
2023/07/17 03:55:53;;;;;;;14.65;7.92;;;;;;;21.37;76.34;100455.82;1705676;84;21472;-66
2023/07/17 03:58:25;;;;;;;16.90;8.23;;;;;;;21.41;76.33;100460.30;1705695;84;21028;-68
2023/07/17 04:00:54;;;;;;;22.65;9.70;;;;;;;21.47;76.35;100453.69;1705656;84;21079;-66
2023/07/17 04:03:25;;;;;;;17.67;8.93;;;;;;;21.53;76.35;100447.59;1704837;84;21083;-67
2023/07/17 04:05:54;;;;;;;12.53;8.83;;;;;;;21.59;76.08;100445.96;1705525;84;21059;-67
2023/07/17 04:08:24;;;;;;;15.83;8.95;;;;;;;21.68;75.59;100450.48;1681782;84;21056;-66
2023/07/17 04:10:54;;;;;;;18.75;8.93;;;;;;;21.74;74.97;100447.44;1705653;84;21059;-66
2023/07/17 04:13:23;;;;;;;18.60;11.55;;;;;;;21.80;74.75;100448.31;1705503;84;21550;-67
2023/07/17 04:15:54;;;;;;;17.87;10.32;;;;;;;21.88;74.94;100458.11;1705471;84;21480;-66
2023/07/17 04:18:24;;;;;;;13.55;8.68;;;;;;;21.96;74.92;100454.25;1699630;83;21039;-67
2023/07/17 04:20:54;;;;;;;20.88;10.35;;;;;;;22.01;74.69;100454.83;1726129;83;21110;-68
2023/07/17 04:23:23;;;;;;;16.80;9.18;;;;;;;22.09;74.69;100462.71;1726020;83;21915;-67
2023/07/17 04:25:55;;;;;;;17.27;8.93;;;;;;;22.17;74.15;100465.01;1725983;83;21046;-66
2023/07/17 04:28:25;;;;;;;15.60;9.95;;;;;;;22.25;73.97;100458.06;1699589;83;21517;-67
2023/07/17 04:30:55;;;;;;;19.10;10.15;;;;;;;22.34;73.08;100452.23;1725943;83;21419;-68
2023/07/17 04:33:25;;;;;;;15.83;9.80;;;;;;;22.44;72.42;100457.84;1708181;83;21062;-67
2023/07/17 04:35:53;;;;;;;13.75;9.05;;;;;;;22.53;71.61;100452.56;1694695;85;21026;-67
2023/07/17 04:38:24;;;;;;;15.28;9.30;;;;;;;22.63;70.66;100453.98;1673322;85;21002;-67
2023/07/17 04:40:54;;;;;;;14.43;9.00;;;;;;;22.72;70.01;100450.37;1673625;83;20991;-67
2023/07/17 04:43:23;;;;;;;14.65;10.45;;;;;;;22.83;69.32;100456.03;1694925;84;21089;-61
2023/07/17 04:45:52;;;;;;;17.23;9.30;;;;;;;22.91;68.90;100458.27;1695134;85;21050;-61
2023/07/17 04:48:25;;;;;;;17.77;10.00;;;;;;;23.00;68.44;100450.45;1694929;84;21030;-61
2023/07/17 04:50:54;;;;;;;16.77;10.15;;;;;;;23.08;67.65;100444.87;1694883;85;21022;-60
2023/07/17 04:53:23;;;;;;;14.83;10.68;;;;;;;23.17;67.15;100444.59;1694796;83;21110;-60
2023/07/17 04:55:53;;;;;;;16.93;9.50;;;;;;;23.27;66.58;100447.94;1695158;85;21018;-61
2023/07/17 04:58:23;;;;;;;13.03;8.35;;;;;;;23.37;65.96;100443.73;1694903;84;21505;-66
2023/07/17 05:01:01;;;;;;;14.28;7.95;;;;;;;23.48;65.46;100451.58;1695037;83;21119;-66
2023/07/17 05:03:32;;;;;;;17.17;9.08;;;;;;;23.57;65.11;100445.72;1694943;83;21065;-67
2023/07/17 05:06:01;;;;;;;15.18;8.23;;;;;;;23.70;64.53;100447.37;1673641;85;21094;-66
2023/07/17 05:08:30;;;;;;;30.05;9.93;;;;;;;23.87;64.02;100435.84;1695235;83;21070;-68
2023/07/17 05:11:00;;;;;;;104.10;17.05;;;;;;;24.09;63.41;100437.47;1695030;85;21094;-68
2023/07/17 05:13:31;;;;;;;104.20;16.00;;;;;;;24.34;62.93;100434.02;1694868;84;21037;-67
2023/07/17 05:16:01;;;;;;;55.17;12.30;;;;;;;24.62;62.58;100438.61;1694958;85;21039;-68
2023/07/17 05:18:30;;;;;;;21.42;7.67;;;;;;;24.88;61.79;100438.73;1694981;83;21086;-68
2023/07/17 05:20:59;;;;;;;13.40;7.60;;;;;;;25.19;60.42;100441.33;1694953;85;21517;-69
2023/07/17 05:23:30;;;;;;;32.28;9.38;;;;;;;25.50;59.18;100439.09;1694861;85;21011;-67
2023/07/17 05:26:00;;;;;;;14.93;7.45;;;;;;;25.79;57.83;100430.67;1673359;85;21054;-70
2023/07/17 05:28:30;;;;;;;8.90;6.25;;;;;;;26.11;56.63;100428.06;1694942;85;21989;-68
2023/07/17 05:30:59;;;;;;;13.90;7.20;;;;;;;26.45;54.99;100436.91;1695039;83;21054;-66
2023/07/17 05:33:28;;;;;;;13.48;6.90;;;;;;;26.75;53.44;100439.30;1708781;83;21019;-67
2023/07/17 05:35:57;;;;;;;12.40;6.45;;;;;;;27.02;52.95;100441.44;1725850;83;21479;-68
2023/07/17 05:38:27;;;;;;;11.45;6.17;;;;;;;27.30;52.28;100442.94;1725861;83;21557;-67
2023/07/17 05:41:00;;;;;;;13.60;7.15;;;;;;;27.58;51.25;100441.05;1725799;83;21443;-66
2023/07/17 05:43:33;;;;;;;16.00;6.03;;;;;;;27.76;50.45;100444.39;1726062;83;21003;-67
2023/07/17 05:46:03;;;;;;;11.05;8.38;;;;;;;27.85;49.92;100436.89;1724484;83;21055;-68
2023/07/17 05:48:33;;;;;;;9.10;6.15;;;;;;;27.87;50.21;100440.23;1725793;83;21126;-67
2023/07/17 05:51:03;;;;;;;11.88;5.83;;;;;;;27.87;50.21;100440.23;1725982;83;21015;-67
2023/07/17 05:53:34;;;;;;;10.75;5.58;;;;;;;27.89;49.57;100437.94;1705506;84;21093;-68
2023/07/17 05:56:05;;;;;;;12.82;6.08;;;;;;;27.89;49.57;100437.94;1705709;84;21052;-68
2023/07/17 05:58:35;;;;;;;14.38;6.37;;;;;;;27.98;48.26;100438.91;1705579;84;21036;-67
2023/07/17 06:01:04;;;;;;;8.28;5.47;;;;;;;28.15;47.45;100436.03;1705566;84;21424;-68
2023/07/17 06:03:34;;;;;;;8.83;5.25;;;;;;;28.25;46.84;100436.68;1705467;84;21023;-66
2023/07/17 06:06:03;;;;;;;10.32;6.20;;;;;;;28.40;46.91;100441.14;1705416;84;21463;-68
2023/07/17 06:08:35;;;;;;;12.15;5.90;;;;;;;28.56;46.33;100438.23;1705279;84;21137;-68
2023/07/17 06:11:04;;;;;;;70.75;8.75;;;;;;;28.61;45.72;100438.70;1705611;84;21065;-70
2023/07/17 06:13:33;;;;;;;13.68;5.58;;;;;;;28.66;45.82;100428.17;1705451;84;21476;-69
2023/07/17 06:16:03;;;;;;;26.95;7.00;;;;;;;28.85;45.54;100435.08;1705392;84;21047;-68
2023/07/17 06:18:32;;;;;;;11.63;5.78;;;;;;;29.14;45.13;100433.23;1705577;84;21059;-67
2023/07/17 06:21:02;;;;;;;8.25;5.47;;;;;;;29.47;44.18;100424.53;1705612;84;21468;-68
2023/07/17 06:23:31;;;;;;;12.78;5.60;;;;;;;29.78;43.33;100429.59;1705500;84;21151;-68
2023/07/17 06:26:01;;;;;;;9.68;5.70;;;;;;;30.06;42.33;100425.20;1705435;84;21064;-69
2023/07/17 06:28:30;;;;;;;11.73;5.62;;;;;;;30.34;41.59;100432.25;1705453;84;21488;-68
2023/07/17 06:30:59;;;;;;;12.37;5.55;;;;;;;30.51;40.58;100435.11;1705622;84;21067;-69
2023/07/17 06:33:29;;;;;;;13.18;5.53;;;;;;;30.63;40.59;100430.28;1700894;84;21129;-67
2023/07/17 06:35:58;;;;;;;17.00;5.85;;;;;;;30.83;40.44;100429.63;1692350;85;21046;-69
2023/07/17 06:38:27;;;;;;;10.55;4.87;;;;;;;31.02;40.02;100432.11;1692140;85;21034;-68
2023/07/17 06:40:56;;;;;;;11.38;5.72;;;;;;;31.26;39.54;100430.23;1692159;85;21074;-68
2023/07/17 06:43:25;;;;;;;8.73;5.10;;;;;;;31.46;38.34;100428.69;1692446;85;21014;-67
2023/07/17 06:45:54;;;;;;;6.97;4.95;;;;;;;31.49;37.29;100431.68;1692121;85;21045;-68
2023/07/17 06:48:23;;;;;;;9.13;5.03;;;;;;;31.48;36.39;100430.02;1691991;85;21474;-66
2023/07/17 06:50:53;;;;;;;10.30;5.40;;;;;;;31.33;37.03;100429.72;1692253;85;21030;-69
2023/07/17 06:53:22;;;;;;;7.00;4.60;;;;;;;31.43;37.87;100435.86;1691939;85;21564;-69
2023/07/17 06:55:59;;;;;;;7.05;4.70;;;;;;;31.67;37.13;100428.20;1692213;84;21054;-69
2023/07/17 06:58:29;;;;;;;6.95;4.87;;;;;;;31.87;36.54;100432.95;1675056;85;21031;-69
2023/07/17 07:00:58;;;;;;;11.68;5.05;;;;;;;32.19;35.94;100429.45;1692142;85;21047;-69
2023/07/17 07:03:28;;;;;;;13.48;5.40;;;;;;;32.36;34.72;100435.64;1692102;85;21022;-66
2023/07/17 07:06:00;;;;;;;11.48;5.50;;;;;;;32.44;35.38;100441.25;1692244;85;21007;-68
2023/07/17 07:08:31;;;;;;;7.85;4.97;;;;;;;32.58;34.94;100430.27;1674881;85;21077;-69
2023/07/17 07:11:02;;;;;;;8.05;4.83;;;;;;;32.73;34.65;100433.91;1692350;85;21070;-68
2023/07/17 07:13:30;;;;;;;11.53;6.15;;;;;;;32.93;34.56;100433.69;1692264;85;21508;-69
2023/07/17 07:16:00;;;;;;;6.53;4.83;;;;;;;33.09;33.54;100427.61;1692261;85;21018;-69
2023/07/17 07:18:29;;;;;;;7.80;4.50;;;;;;;33.15;33.92;100428.23;1692088;85;21164;-70
2023/07/17 07:20:58;;;;;;;31.33;6.83;;;;;;;33.26;33.74;100427.47;1692291;85;21030;-69
2023/07/17 07:23:27;;;;;;;12.18;5.90;;;;;;;33.44;33.64;100426.73;1692056;85;21081;-68
2023/07/17 07:25:56;;;;;;;11.65;5.53;;;;;;;33.63;33.13;100425.59;1692501;84;21018;-69
2023/07/17 07:28:25;;;;;;;11.83;5.10;;;;;;;33.80;32.82;100432.25;1674500;84;21089;-68
2023/07/17 07:30:58;;;;;;;38.38;8.60;;;;;;;33.86;32.87;100433.15;1692250;85;21497;-70
2023/07/17 07:33:29;;;;;;;10.63;5.00;;;;;;;34.07;32.53;100425.10;1676590;84;21053;-69
2023/07/17 07:36:00;;;;;;;18.12;6.87;;;;;;;34.28;32.19;100433.75;1701881;84;21077;-68
2023/07/17 07:38:29;;;;;;;6.62;4.45;;;;;;;34.45;31.35;100436.13;1675324;84;21082;-69
2023/07/17 07:41:00;;;;;;;8.28;4.60;;;;;;;34.48;31.03;100425.48;1701904;84;21054;-69
2023/07/17 07:43:30;;;;;;;8.68;5.62;;;;;;;34.43;31.39;100426.53;1701761;84;21066;-69
2023/07/17 07:45:59;;;;;;;12.05;5.62;;;;;;;34.45;31.43;100420.48;1701907;84;21434;-67
2023/07/17 07:48:30;;;;;;;10.75;4.78;;;;;;;34.53;31.18;100416.11;1701942;84;21101;-70
2023/07/17 07:51:00;;;;;;;7.20;4.47;;;;;;;34.63;30.89;100416.20;1702044;84;21030;-68
2023/07/17 07:53:30;;;;;;;12.28;5.12;;;;;;;34.73;30.96;100412.86;1701891;84;21010;-70
2023/07/17 07:56:01;;;;;;;16.82;6.47;;;;;;;34.93;30.81;100417.56;1700705;83;21101;-72
2023/07/17 07:58:30;;;;;;;7.50;4.90;;;;;;;35.13;30.75;100416.33;1676343;85;21163;-71
2023/07/17 08:00:59;;;;;;;13.85;6.17;;;;;;;35.14;30.86;100415.97;1676427;85;21142;-68
2023/07/17 08:03:29;;;;;;;7.62;4.92;;;;;;;35.16;30.72;100416.44;1676313;85;21027;-68
2023/07/17 08:05:58;;;;;;;9.20;4.75;;;;;;;35.10;30.09;100412.75;1676325;85;21075;-68
2023/07/17 08:08:27;;;;;;;6.62;4.70;;;;;;;35.01;29.89;100414.33;1676468;85;21022;-69
2023/07/17 08:10:57;;;;;;;18.30;7.50;;;;;;;34.90;30.34;100418.88;1670064;84;21475;-68
2023/07/17 08:13:26;;;;;;;6.75;5.05;;;;;;;34.93;30.29;100418.16;1669697;84;21099;-68
2023/07/17 08:15:56;;;;;;;11.83;5.60;;;;;;;35.12;30.02;100407.55;1722960;83;21022;-67
2023/07/17 08:18:25;;;;;;;7.35;4.97;;;;;;;35.33;29.93;100405.34;1722218;83;21043;-73
2023/07/17 08:20:54;;;;;;;10.43;5.03;;;;;;;35.45;29.45;100405.27;1732165;83;21510;-72
2023/07/17 08:23:26;;;;;;;6.25;4.87;;;;;;;35.44;29.56;100407.89;1732136;83;21043;-73
2023/07/17 08:25:55;;;;;;;7.65;5.15;;;;;;;35.32;30.06;100412.80;1676085;85;21106;-73
2023/07/17 08:28:25;;;;;;;11.78;5.45;;;;;;;35.23;30.59;100405.84;1731029;83;21041;-74
2023/07/17 08:30:53;;;;;;;11.35;5.75;;;;;;;35.30;30.41;100407.47;1731129;83;21477;-73
2023/07/17 08:33:22;;;;;;;12.90;5.83;;;;;;;35.41;30.28;100416.34;1730905;82;21058;-72
2023/07/17 08:35:53;;;;;;;11.28;5.85;;;;;;;35.56;30.05;100416.36;1720795;83;21548;-68
2023/07/17 08:38:22;;;;;;;11.35;4.85;;;;;;;35.82;29.74;100413.64;1720870;83;21031;-72
2023/07/17 08:40:53;;;;;;;9.90;4.87;;;;;;;36.07;29.62;100409.39;1720919;83;21022;-72
2023/07/17 08:43:23;;;;;;;12.63;4.92;;;;;;;36.28;29.00;100409.68;1715360;83;21020;-72
2023/07/17 08:45:52;;;;;;;9.60;5.50;;;;;;;36.29;28.76;100408.52;1672629;85;21111;-71
2023/07/17 08:48:21;;;;;;;10.05;5.55;;;;;;;36.02;28.93;100418.83;1691926;83;21116;-72
2023/07/17 08:50:51;;;;;;;9.43;5.62;;;;;;;35.70;29.26;100415.09;1692032;83;21243;-72
2023/07/17 08:53:21;;;;;;;7.47;5.62;;;;;;;35.31;29.57;100411.97;1691621;84;21567;-70
2023/07/17 08:55:53;;;;;;;10.58;6.03;;;;;;;34.91;30.45;100414.84;1692149;85;21551;-71
2023/07/17 08:58:24;;;;;;;12.43;5.50;;;;;;;34.43;31.61;100410.05;1692227;85;21048;-72
2023/07/17 09:00:53;;;;;;;7.50;5.72;;;;;;;34.04;32.01;100413.84;1692281;85;21099;-72
2023/07/17 09:03:22;;;;;;;10.88;6.65;;;;;;;33.88;32.38;100417.98;1691811;85;21250;-71
2023/07/17 09:05:51;;;;;;;9.25;5.50;;;;;;;33.87;32.88;100412.66;1672621;85;21096;-71
2023/07/17 09:08:20;;;;;;;7.17;5.28;;;;;;;33.94;32.08;100415.73;1692035;85;21020;-71
2023/07/17 09:11:09;;;;;;;8.80;5.70;;;;;;;33.96;31.98;100412.78;1692119;83;21348;-72
2023/07/17 09:13:44;;;;;;;7.00;5.55;;;;;;;33.98;32.17;100405.31;1691979;83;21072;-72
2023/07/17 09:16:17;;;;;;;7.10;5.65;;;;;;;34.05;32.11;100399.86;1692199;83;21043;-71
2023/07/17 09:18:51;;;;;;;9.95;5.90;;;;;;;34.11;32.14;100395.59;1681328;83;21071;-71
2023/07/17 09:21:24;;;;;;;9.35;6.78;;;;;;;34.15;32.04;100400.81;1721037;83;20979;-72
2023/07/17 09:23:55;;;;;;;7.17;5.67;;;;;;;34.07;32.15;100398.91;1720852;83;21424;-74
2023/07/17 09:26:28;;;;;;;10.55;5.95;;;;;;;33.94;32.10;100398.68;1691228;85;21118;-73
2023/07/17 09:28:58;;;;;;;8.38;5.65;;;;;;;33.77;32.86;100393.16;1720941;83;21066;-71
2023/07/17 09:31:29;;;;;;;7.67;5.60;;;;;;;33.62;32.68;100389.83;1720948;83;21034;-72
2023/07/17 09:34:00;;;;;;;9.38;5.90;;;;;;;33.47;32.79;100388.27;1720855;83;21049;-71
2023/07/17 09:36:30;;;;;;;7.87;6.05;;;;;;;33.33;32.99;100385.74;1691402;85;21047;-73
2023/07/17 09:39:01;;;;;;;10.50;5.78;;;;;;;33.23;33.24;100384.14;1720774;83;21098;-70
2023/07/17 09:41:30;;;;;;;19.40;9.05;;;;;;;33.16;33.79;100388.12;1720864;83;21034;-69
2023/07/17 09:44:06;;;;;;;11.88;7.80;;;;;;;33.14;33.95;100382.55;1691160;85;21083;-69
2023/07/17 09:46:40;;;;;;;9.30;6.83;;;;;;;33.07;34.77;100388.20;1726620;82;21077;-70
2023/07/17 09:49:09;;;;;;;13.80;6.67;;;;;;;33.00;34.48;100390.78;1720939;83;21027;-69
2023/07/17 09:51:37;;;;;;;8.03;5.62;;;;;;;32.89;34.54;100381.03;1703152;83;21131;-71
2023/07/17 09:54:06;;;;;;;8.05;5.65;;;;;;;32.76;34.31;100382.13;1720916;83;21035;-72
2023/07/17 09:56:36;;;;;;;8.45;5.17;;;;;;;32.68;34.30;100381.61;1720948;83;21003;-71
2023/07/17 09:59:13;;;;;;;11.38;8.13;;;;;;;32.65;34.24;100380.30;1720657;83;21065;-59
2023/07/17 10:01:47;;;;;;;14.18;8.15;;;;;;;32.67;34.71;100374.28;1720786;83;21074;-61
2023/07/17 10:04:33;;;;;;;10.25;6.80;;;;;;;32.63;34.46;100378.40;1703191;83;21065;-59
2023/07/17 10:07:04;;;;;;;7.95;6.10;;;;;;;32.62;34.19;100375.91;1720836;83;21462;-59
2023/07/17 10:09:36;;;;;;;7.47;6.03;;;;;;;32.61;34.35;100372.83;1720844;83;21030;-59
2023/07/17 10:12:08;;;;;;;7.20;5.65;;;;;;;32.62;34.36;100375.31;1691126;85;21475;-60
2023/07/17 10:14:38;;;;;;;7.60;5.50;;;;;;;32.60;34.54;100367.73;1703243;83;21077;-58
2023/07/17 10:17:33;;;;;;;6.30;5.70;;;;;;;32.53;34.61;100364.62;1720944;83;20999;-72
2023/07/17 10:20:08;;;;;;;11.10;5.90;;;;;;;32.45;34.77;100369.16;1720997;83;21050;-71
2023/07/17 10:22:44;;;;;;;6.83;5.67;;;;;;;32.37;35.17;100369.23;1692406;85;21063;-71
2023/07/17 10:25:25;;;;;;;8.48;6.40;;;;;;;32.35;35.54;100370.98;1721122;83;21018;-74
2023/07/17 10:28:00;;;;;;;12.05;6.03;;;;;;;32.40;35.35;100367.95;1702010;83;21106;-75
2023/07/17 10:30:33;;;;;;;7.50;5.65;;;;;;;32.42;35.51;100368.44;1720949;83;21018;-65
2023/07/17 10:33:19;;;;;;;7.05;5.58;;;;;;;32.41;35.66;100367.36;1702574;83;21062;-69
2023/07/17 10:35:58;;;;;;;9.83;6.15;;;;;;;32.37;35.48;100364.38;1731244;83;21507;-68
2023/07/17 10:38:31;;;;;;;9.33;5.85;;;;;;;32.23;36.30;100359.53;1734511;83;21051;-68
2023/07/17 10:41:17;;;;;;;13.93;7.22;;;;;;;32.09;35.90;100356.13;1710395;83;21011;-68
2023/07/17 10:43:54;;;;;;;11.75;6.35;;;;;;;31.97;37.07;100356.03;1734561;83;21476;-68
2023/07/17 10:46:32;;;;;;;8.48;6.20;;;;;;;31.97;37.07;100356.03;1730763;83;21062;-67
2023/07/17 10:49:08;;;;;;;11.25;5.78;;;;;;;31.93;38.16;100354.47;1734824;83;21023;-67
2023/07/17 10:51:43;;;;;;;10.90;6.20;;;;;;;31.90;37.00;100355.73;1734812;83;21028;-67
2023/07/17 10:54:13;;;;;;;9.00;6.05;;;;;;;31.92;37.04;100356.23;1710964;83;21012;-69
2023/07/17 10:56:45;;;;;;;16.62;7.45;;;;;;;31.96;37.18;100358.63;1710514;83;21096;-69
2023/07/17 10:59:15;;;;;;;13.15;6.95;;;;;;;31.95;38.26;100358.38;1710306;83;21048;-70
2023/07/17 11:01:45;;;;;;;11.08;6.50;;;;;;;31.90;38.17;100359.99;1710102;83;21011;-68
2023/07/17 11:04:15;;;;;;;8.25;6.10;;;;;;;31.92;38.33;100356.23;1734450;83;21075;-68
2023/07/17 11:06:45;;;;;;;6.87;5.65;;;;;;;31.96;38.09;100352.37;1687721;83;21052;-69
2023/07/17 11:09:14;;;;;;;9.20;5.97;;;;;;;32.04;38.32;100350.06;1710094;83;21048;-70
2023/07/17 11:11:45;;;;;;;7.28;5.97;;;;;;;32.12;37.50;100346.94;1734689;82;21099;-68
2023/07/17 11:14:18;;;;;;;10.38;5.85;;;;;;;32.16;36.64;100345.91;1734702;82;21194;-69
2023/07/17 11:16:51;;;;;;;15.55;6.75;;;;;;;32.20;36.45;100340.38;1734420;83;20980;-69
2023/07/17 11:19:21;;;;;;;7.83;6.25;;;;;;;32.24;37.51;100344.77;1710785;83;21063;-69
2023/07/17 11:21:52;;;;;;;8.35;6.08;;;;;;;32.26;36.79;100338.20;1709050;83;21500;-69
2023/07/17 11:24:21;;;;;;;10.75;6.33;;;;;;;32.23;36.43;100338.27;1734677;83;21173;-68
2023/07/17 11:26:50;;;;;;;8.55;5.85;;;;;;;32.15;37.13;100337.73;1734735;83;20996;-70
2023/07/17 11:29:19;;;;;;;8.85;5.97;;;;;;;32.09;37.68;100344.78;1734530;82;21525;-68
2023/07/17 11:31:48;;;;;;;9.20;6.05;;;;;;;32.05;37.22;100341.81;1734452;83;21036;-70
2023/07/17 11:34:19;;;;;;;11.20;5.65;;;;;;;32.00;37.33;100342.59;1710101;83;21111;-70